createdAt,value
2024-02-13T00:05:11.206Z,5.88
2024-02-13T00:10:33.118Z,6.05
2024-02-13T00:15:54.579Z,6.30
2024-02-13T00:21:16.033Z,6.80
2024-02-13T00:26:37.656Z,6.32
2024-02-13T00:31:59.225Z,7.43
2024-02-13T00:37:20.720Z,7.75
2024-02-13T00:42:41.868Z,7.95
2024-02-13T00:48:03.448Z,7.38
2024-02-13T00:53:25.130Z,8.40
2024-02-13T00:58:49.884Z,8.02
2024-02-13T01:04:12.178Z,8.02
2024-02-13T01:09:33.576Z,8.90
2024-02-13T01:14:55.067Z,8.73
2024-02-13T01:20:16.643Z,8.00
2024-02-13T01:25:38.277Z,8.25
2024-02-13T01:30:59.904Z,7.95
2024-02-13T01:36:21.437Z,8.52
2024-02-13T01:41:42.831Z,8.02
2024-02-13T01:47:05.175Z,7.68
2024-02-13T01:52:26.681Z,8.63
2024-02-13T01:57:50.286Z,9.38
2024-02-13T02:03:14.436Z,9.18
2024-02-13T02:08:36.205Z,10.02
2024-02-13T02:13:58.886Z,10.27
2024-02-13T02:19:20.525Z,12.20
2024-02-13T02:24:41.963Z,11.85
2024-02-13T02:30:03.285Z,11.35
2024-02-13T02:35:24.944Z,12.77
2024-02-13T02:40:46.534Z,13.48
2024-02-13T02:46:08.165Z,13.10
2024-02-13T02:51:29.409Z,15.10
2024-02-13T02:56:50.828Z,14.82
2024-02-13T03:02:12.548Z,15.75
2024-02-13T03:07:34.168Z,15.52
2024-02-13T03:12:55.630Z,15.73
2024-02-13T03:18:17.622Z,16.65
2024-02-13T03:23:38.982Z,16.02
2024-02-13T03:29:00.289Z,15.85
2024-02-13T03:34:21.866Z,17.63
2024-02-13T03:39:43.132Z,16.30
2024-02-13T03:45:04.697Z,15.43
2024-02-13T03:50:26.349Z,16.42
2024-02-13T03:55:47.852Z,15.90
2024-02-13T04:01:09.146Z,16.15
2024-02-13T04:06:31.167Z,15.43
2024-02-13T04:11:52.512Z,16.77
2024-02-13T04:17:14.158Z,17.60
2024-02-13T04:22:35.646Z,16.27
2024-02-13T04:27:56.962Z,18.92
2024-02-13T04:33:18.340Z,18.83
2024-02-13T04:38:39.918Z,18.08
2024-02-13T04:44:01.369Z,18.42
2024-02-13T04:49:23.709Z,17.77
2024-02-13T04:54:45.280Z,19.15
2024-02-13T05:00:07.936Z,18.00
2024-02-13T05:05:29.441Z,17.95
2024-02-13T05:10:50.654Z,18.85
2024-02-13T05:16:12.025Z,19.05
2024-02-13T05:21:33.690Z,17.95
2024-02-13T05:26:55.136Z,19.65
2024-02-13T05:32:16.641Z,19.63
2024-02-13T05:37:38.101Z,20.67
2024-02-13T05:42:59.354Z,21.00
2024-02-13T05:48:20.742Z,21.30
2024-02-13T05:53:42.219Z,20.88
2024-02-13T05:59:03.728Z,21.42
2024-02-13T06:04:24.966Z,22.00
2024-02-13T06:09:46.502Z,24.38
2024-02-13T06:15:09.899Z,22.40
2024-02-13T06:20:31.183Z,24.15
2024-02-13T06:25:52.447Z,24.30
2024-02-13T06:31:13.934Z,25.60
2024-02-13T06:36:35.468Z,24.40
2024-02-13T06:41:56.711Z,24.63
2024-02-13T06:47:18.355Z,24.52
2024-02-13T06:52:41.395Z,24.45
2024-02-13T06:58:02.608Z,25.55
2024-02-13T07:03:23.894Z,24.27
2024-02-13T07:08:45.397Z,25.30
2024-02-13T07:14:07.171Z,23.60
2024-02-13T07:19:28.677Z,23.30
2024-02-13T07:24:49.879Z,24.23
2024-02-13T07:30:12.109Z,23.50
2024-02-13T07:35:33.711Z,22.02
2024-02-13T07:40:55.626Z,22.20
2024-02-13T07:46:17.000Z,22.50
2024-02-13T07:51:38.169Z,22.05
2024-02-13T07:56:59.726Z,21.83
2024-02-13T08:02:21.270Z,20.83
2024-02-13T08:07:42.735Z,20.45
2024-02-13T08:13:04.563Z,20.60
2024-02-13T08:18:26.040Z,19.63
2024-02-13T08:23:47.753Z,18.63
2024-02-13T08:29:09.246Z,17.50
2024-02-13T08:34:30.537Z,17.90
2024-02-13T08:39:52.112Z,16.40
2024-02-13T08:45:13.291Z,17.42
2024-02-13T08:50:34.631Z,15.50
2024-02-13T08:55:56.045Z,15.07
2024-02-13T09:01:21.642Z,14.98
2024-02-13T09:06:43.269Z,13.38
2024-02-13T09:12:05.376Z,12.20
2024-02-13T09:17:27.130Z,12.65
2024-02-13T09:22:49.216Z,11.32
2024-02-13T09:28:10.955Z,10.30
2024-02-13T09:33:32.600Z,9.85
2024-02-13T09:38:54.417Z,11.05
2024-02-13T09:44:15.809Z,10.63
2024-02-13T09:49:42.361Z,9.32
2024-02-13T09:55:07.335Z,8.98
2024-02-13T10:00:30.781Z,9.33
2024-02-13T10:05:52.518Z,8.05
2024-02-13T10:11:14.714Z,9.00
2024-02-13T10:16:36.381Z,7.93
2024-02-13T10:22:07.474Z,8.32
2024-02-13T10:27:28.705Z,7.75
2024-02-13T10:33:24.129Z,7.65
2024-02-13T10:38:55.942Z,8.27
2024-02-13T10:44:21.263Z,7.28
2024-02-13T10:49:53.489Z,6.93
2024-02-13T10:55:17.056Z,7.03
2024-02-13T11:00:38.403Z,6.43
2024-02-13T11:05:59.966Z,6.90
2024-02-13T11:11:25.328Z,6.57
2024-02-13T11:17:02.421Z,6.15
2024-02-13T11:22:36.027Z,6.57
2024-02-13T11:28:02.142Z,5.03
2024-02-13T11:33:23.885Z,4.55
2024-02-13T11:38:45.268Z,5.18
2024-02-13T11:44:08.024Z,4.70
2024-02-13T11:49:29.740Z,4.50
2024-02-13T11:54:52.562Z,4.63
2024-02-13T12:00:15.121Z,4.63
2024-02-13T12:05:36.676Z,4.88
2024-02-13T12:10:58.711Z,5.25
2024-02-13T12:16:20.181Z,4.75
2024-02-13T12:21:43.448Z,4.25
2024-02-13T12:27:05.261Z,3.92
2024-02-13T12:32:29.044Z,3.67
2024-02-13T12:37:52.101Z,4.22
2024-02-13T12:43:13.434Z,3.70
2024-02-13T12:48:39.447Z,3.88
2024-02-13T12:54:04.107Z,3.38
2024-02-13T12:59:26.162Z,3.55
2024-02-13T13:04:47.559Z,3.53
2024-02-13T13:10:09.858Z,3.42
2024-02-13T13:15:31.401Z,3.80
2024-02-13T13:20:53.383Z,3.40
2024-02-13T13:26:14.994Z,3.38
2024-02-13T13:31:38.932Z,2.63
2024-02-13T13:37:00.211Z,3.20
2024-02-13T13:42:22.015Z,3.25
2024-02-13T13:47:45.061Z,2.80
2024-02-13T13:53:06.971Z,3.57
2024-02-13T13:58:28.600Z,3.03
2024-02-13T14:03:50.079Z,3.88
2024-02-13T14:09:11.671Z,3.63
2024-02-13T14:14:34.160Z,3.50
2024-02-13T14:19:55.414Z,3.80
2024-02-13T14:25:17.384Z,3.90
2024-02-13T14:30:38.876Z,3.55
2024-02-13T14:36:00.205Z,3.90
2024-02-13T14:41:21.825Z,3.83
2024-02-13T14:46:43.347Z,3.33
2024-02-13T14:52:05.760Z,3.17
2024-02-13T14:57:27.084Z,3.40
2024-02-13T15:02:48.990Z,3.53
2024-02-13T15:08:10.137Z,3.08
2024-02-13T15:13:31.404Z,3.28
2024-02-13T15:18:52.604Z,3.40
2024-02-13T15:24:14.187Z,3.30
2024-02-13T15:29:35.802Z,2.80
2024-02-13T15:34:57.259Z,2.92
2024-02-13T15:40:18.940Z,2.53
2024-02-13T15:45:40.044Z,2.60
2024-02-13T15:51:01.796Z,2.72
2024-02-13T15:56:23.341Z,2.20
2024-02-13T16:01:44.873Z,2.97
2024-02-13T16:07:07.664Z,3.47
2024-02-13T16:12:29.070Z,3.67
2024-02-13T16:17:50.563Z,3.20
2024-02-13T16:23:12.116Z,3.40
2024-02-13T16:28:33.558Z,3.35
2024-02-13T16:33:55.105Z,3.10
2024-02-13T16:39:17.844Z,3.28
2024-02-13T16:44:39.584Z,3.38
2024-02-13T16:50:00.881Z,3.60
2024-02-13T16:55:22.614Z,3.72
2024-02-13T17:00:44.075Z,3.22
2024-02-13T17:06:05.968Z,2.80
2024-02-13T17:11:28.316Z,3.17
2024-02-13T17:16:49.689Z,2.85
2024-02-13T17:22:11.189Z,2.85
2024-02-13T17:27:32.401Z,3.20
2024-02-13T17:32:53.668Z,2.80
2024-02-13T17:38:15.354Z,2.63
2024-02-13T17:43:36.795Z,2.97
2024-02-13T17:48:58.457Z,2.58
2024-02-13T17:54:20.032Z,2.40
2024-02-13T17:59:41.438Z,2.45
2024-02-13T18:05:03.130Z,2.33
2024-02-13T18:10:24.657Z,2.42
2024-02-13T18:15:46.504Z,2.47
2024-02-13T18:21:08.141Z,2.22
2024-02-13T18:26:30.029Z,2.40
2024-02-13T18:31:51.262Z,2.03
2024-02-13T18:37:12.529Z,1.95
2024-02-13T18:42:34.366Z,2.22
2024-02-13T18:47:55.819Z,2.10
2024-02-13T18:53:17.662Z,2.45
2024-02-13T18:58:39.150Z,1.90
2024-02-13T19:04:00.676Z,2.53
2024-02-13T19:09:23.088Z,2.22
2024-02-13T19:14:45.547Z,2.20
2024-02-13T19:20:07.969Z,2.10
2024-02-13T19:25:29.486Z,2.38
2024-02-13T19:30:50.827Z,2.50
2024-02-13T19:36:12.239Z,2.35
2024-02-13T19:41:33.607Z,2.35
2024-02-13T19:46:55.192Z,2.60
2024-02-13T19:52:16.381Z,2.35
2024-02-13T19:57:37.747Z,2.60
2024-02-13T20:02:59.171Z,2.60
2024-02-13T20:08:20.835Z,2.42
2024-02-13T20:13:42.348Z,2.33
2024-02-13T20:19:04.038Z,1.90
2024-02-13T20:24:25.785Z,2.88
2024-02-13T20:29:46.880Z,2.63
2024-02-13T20:35:09.159Z,2.58
2024-02-13T20:40:31.068Z,2.45
2024-02-13T20:45:52.582Z,2.80
2024-02-13T20:51:13.825Z,2.22
2024-02-13T20:56:35.215Z,2.40
2024-02-13T21:01:57.176Z,2.08
2024-02-13T21:07:18.592Z,2.80
2024-02-13T21:12:40.149Z,2.67
2024-02-13T21:18:01.869Z,2.80
2024-02-13T21:23:23.506Z,2.50
2024-02-13T21:28:45.116Z,3.00
2024-02-13T21:34:06.505Z,2.67
2024-02-13T21:39:27.915Z,2.55
2024-02-13T21:44:49.017Z,2.50
2024-02-13T21:50:11.348Z,2.80
2024-02-13T21:55:33.017Z,2.97
2024-02-13T22:00:54.306Z,3.15
2024-02-13T22:06:15.946Z,2.90
2024-02-13T22:11:37.464Z,3.30
2024-02-13T22:16:58.930Z,3.38
2024-02-13T22:22:20.121Z,2.92
2024-02-13T22:27:41.567Z,3.33
2024-02-13T22:33:03.147Z,3.58
2024-02-13T22:38:24.420Z,3.80
2024-02-13T22:43:45.930Z,3.80
2024-02-13T22:49:07.856Z,3.95
2024-02-13T22:54:29.196Z,4.28
2024-02-13T22:59:50.534Z,4.50
2024-02-13T23:05:12.017Z,4.53
2024-02-13T23:10:33.841Z,4.75
2024-02-13T23:15:55.141Z,4.72
2024-02-13T23:21:16.958Z,4.80
2024-02-13T23:26:39.976Z,4.60
2024-02-13T23:32:01.445Z,5.25
2024-02-13T23:37:22.968Z,5.68
2024-02-13T23:42:49.482Z,5.57
2024-02-13T23:48:10.930Z,5.18
2024-02-13T23:53:34.665Z,6.25
2024-02-13T23:58:56.254Z,5.57
